Time;durP1;ratioP1;P1;durP2;ratioP2;P2;SDS_P1;SDS_P2;PMS_P1;PMS_P2;Temp;Humidity;BMP_temperature;BMP_pressure;BME280_temperature;BME280_humidity;BME280_pressure;Samples;Min_cycle;Max_cycle;Signal;HPM_P1;HPM_P2
2022/07/01 00:00:50;;;;;;;2.42;0.60;;;15.00;99.90;;;;;;5085130;28;20372;-73
2022/07/01 00:03:15;;;;;;;3.72;0.65;;;15.00;99.90;;;;;;5086471;28;20396;-73
2022/07/01 00:05:41;;;;;;;1.45;0.38;;;15.00;99.90;;;;;;5051709;28;20039;-74
2022/07/01 00:08:07;;;;;;;3.00;0.80;;;15.00;99.90;;;;;;5059074;28;20052;-73
2022/07/01 00:10:32;;;;;;;2.35;0.95;;;15.00;99.90;;;;;;5062441;28;20419;-74
2022/07/01 00:12:58;;;;;;;2.58;0.80;;;15.50;99.90;;;;;;5082464;28;20044;-73
2022/07/01 00:15:23;;;;;;;2.50;1.05;;;15.20;99.90;;;;;;5060097;28;20406;-73
2022/07/01 00:17:49;;;;;;;2.63;0.85;;;15.10;99.90;;;;;;5069805;28;20131;-74
2022/07/01 00:20:15;;;;;;;1.92;0.60;;;15.10;99.90;;;;;;5052907;28;20059;-73
2022/07/01 00:22:41;;;;;;;3.70;0.90;;;14.80;99.90;;;;;;5052307;28;20035;-73
2022/07/01 00:25:08;;;;;;;2.38;0.77;;;15.20;99.90;;;;;;5087451;28;20569;-74
2022/07/01 00:27:40;;;;;;;3.30;0.52;;;15.20;99.90;;;;;;5070234;28;20534;-75
2022/07/01 00:30:08;;;;;;;2.58;0.60;;;15.20;99.90;;;;;;5085256;28;20059;-74
2022/07/01 00:32:33;;;;;;;1.77;0.73;;;15.20;99.90;;;;;;5070303;28;20063;-74
2022/07/01 00:34:59;;;;;;;5.70;1.27;;;15.30;99.90;;;;;;5055063;28;20079;-74
2022/07/01 00:37:25;;;;;;;3.38;0.60;;;15.20;99.90;;;;;;5070086;28;20086;-74
2022/07/01 00:39:50;;;;;;;2.90;0.63;;;15.30;99.90;;;;;;5078100;28;20063;-75
2022/07/01 00:42:16;;;;;;;2.90;0.70;;;15.20;99.90;;;;;;5075881;28;20051;-74
2022/07/01 00:44:42;;;;;;;2.00;0.47;;;15.20;99.90;;;;;;5088208;28;20044;-75
2022/07/01 00:47:10;;;;;;;4.50;0.82;;;15.20;99.90;;;;;;5088467;28;20163;-74
2022/07/01 00:49:37;;;;;;;2.58;0.60;;;15.20;99.90;;;;;;5073938;28;20142;-74
2022/07/01 00:52:05;;;;;;;5.32;1.00;;;15.20;99.90;;;;;;5088853;28;20055;-74
2022/07/01 00:54:34;;;;;;;3.25;0.52;;;15.20;99.90;;;;;;5059812;28;20039;-75
2022/07/01 00:56:59;;;;;;;2.75;1.20;;;15.20;99.90;;;;;;5057999;28;20129;-74
2022/07/01 00:59:25;;;;;;;4.05;0.68;;;16.40;99.90;;;;;;5088643;28;20044;-73
2022/07/01 01:01:51;;;;;;;2.65;0.60;;;15.20;99.90;;;;;;5088051;28;20336;-73
2022/07/01 01:04:17;;;;;;;0.85;0.40;;;15.30;99.90;;;;;;5058675;28;20114;-74
2022/07/01 01:06:43;;;;;;;2.00;0.55;;;15.20;99.90;;;;;;5067739;28;20044;-74
2022/07/01 01:09:08;;;;;;;4.22;0.98;;;16.50;99.90;;;;;;5087961;28;20079;-74
2022/07/01 01:11:34;;;;;;;2.45;0.52;;;15.90;99.90;;;;;;5087783;28;20036;-74
2022/07/01 01:14:00;;;;;;;2.55;0.68;;;16.00;99.90;;;;;;5087558;28;20486;-74
2022/07/01 01:16:26;;;;;;;1.63;0.60;;;15.40;99.90;;;;;;5050072;28;20044;-74
2022/07/01 01:18:51;;;;;;;1.95;0.52;;;16.20;99.90;;;;;;5044620;28;20048;-73
2022/07/01 01:21:18;;;;;;;1.63;0.50;;;15.10;99.90;;;;;;5082041;28;20045;-74
2022/07/01 01:23:44;;;;;;;0.80;0.73;;;15.20;99.90;;;;;;5050851;28;20069;-74
2022/07/01 01:26:21;;;;;;;1.58;0.57;;;15.30;99.90;;;;;;5049410;28;20052;-74
2022/07/01 01:28:48;;;;;;;1.88;0.45;;;15.10;99.90;;;;;;5065527;28;20387;-73
2022/07/01 01:31:14;;;;;;;1.80;0.60;;;15.10;99.90;;;;;;5069357;28;20032;-73
2022/07/01 01:33:39;;;;;;;0.90;0.43;;;15.00;99.90;;;;;;5066443;28;20505;-74
2022/07/01 01:36:06;;;;;;;2.00;0.60;;;15.10;99.90;;;;;;5052170;28;20048;-73
2022/07/01 01:38:34;;;;;;;0.55;0.40;;;15.00;99.90;;;;;;5069836;28;20032;-74
2022/07/01 01:41:01;;;;;;;2.47;0.50;;;15.00;99.90;;;;;;5067163;28;20048;-73
2022/07/01 01:43:27;;;;;;;4.20;1.00;;;15.00;99.90;;;;;;5088139;28;20040;-72
2022/07/01 01:45:53;;;;;;;0.50;0.20;;;15.00;99.90;;;;;;5087881;28;20427;-72
2022/07/01 01:48:19;;;;;;;1.45;0.40;;;15.00;99.90;;;;;;5072693;28;20036;-73
2022/07/01 01:50:44;;;;;;;0.70;0.40;;;15.00;99.90;;;;;;5056282;28;20043;-72
2022/07/01 01:53:10;;;;;;;2.80;0.68;;;15.00;99.90;;;;;;5077182;28;20057;-72
2022/07/01 01:55:36;;;;;;;0.73;0.30;;;15.80;99.90;;;;;;5087652;28;20047;-73
2022/07/01 01:58:01;;;;;;;1.35;0.60;;;15.00;99.90;;;;;;5071528;28;20055;-73
2022/07/01 02:00:28;;;;;;;2.05;0.35;;;15.00;99.90;;;;;;5086206;28;20472;-73
2022/07/01 02:02:54;;;;;;;1.52;0.57;;;15.00;99.90;;;;;;5087103;28;20043;-73
2022/07/01 02:05:20;;;;;;;1.83;0.50;;;15.00;99.90;;;;;;5086838;28;20040;-72
2022/07/01 02:07:45;;;;;;;1.85;0.40;;;15.00;99.90;;;;;;5073884;28;20040;-74
2022/07/01 02:10:11;;;;;;;1.25;0.57;;;15.00;99.90;;;;;;5073342;28;20044;-72
2022/07/01 02:12:37;;;;;;;2.50;0.68;;;15.00;99.90;;;;;;5069285;28;20039;-73
2022/07/01 02:15:03;;;;;;;2.53;1.10;;;14.90;99.90;;;;;;5067902;28;20040;-73
2022/07/01 02:17:32;;;;;;;2.67;1.40;;;14.90;99.90;;;;;;5066506;28;20059;-74
2022/07/01 02:19:57;;;;;;;4.47;0.93;;;14.90;99.90;;;;;;5082226;28;20622;-73
2022/07/01 02:22:23;;;;;;;2.05;0.98;;;14.90;99.90;;;;;;5082096;28;20480;-72
2022/07/01 02:24:48;;;;;;;1.73;1.20;;;15.20;99.90;;;;;;5083932;28;20502;-73
2022/07/01 02:27:14;;;;;;;3.65;0.88;;;15.00;99.90;;;;;;5058538;28;20067;-72
2022/07/01 02:29:41;;;;;;;5.38;1.42;;;15.00;99.90;;;;;;5038460;28;20071;-73
2022/07/01 02:32:07;;;;;;;1.58;1.20;;;15.00;99.90;;;;;;5035182;28;20044;-72
2022/07/01 02:34:33;;;;;;;0.77;0.75;;;14.90;99.90;;;;;;5054041;28;20040;-72
2022/07/01 02:36:58;;;;;;;1.13;1.02;;;15.00;99.90;;;;;;5051320;28;20036;-72
2022/07/01 02:39:24;;;;;;;1.48;0.68;;;14.90;99.90;;;;;;5052000;28;20036;-72
2022/07/01 02:44:35;;;;;;;2.67;1.17;;;15.60;99.90;;;;;;5048300;28;20120;-72
2022/07/01 02:47:00;;;;;;;2.60;1.20;;;14.90;99.90;;;;;;5052239;28;20045;-72
2022/07/01 02:49:26;;;;;;;1.23;1.10;;;14.80;99.90;;;;;;5049719;28;20041;-73
2022/07/01 02:51:52;;;;;;;1.73;1.40;;;14.80;99.90;;;;;;5054752;28;20040;-72
2022/07/01 02:54:18;;;;;;;2.33;1.52;;;14.80;99.90;;;;;;5053673;28;20404;-73
2022/07/01 02:56:44;;;;;;;1.40;1.30;;;14.80;99.90;;;;;;5053797;28;20072;-73
2022/07/01 02:59:10;;;;;;;2.60;1.52;;;14.70;99.90;;;;;;5052323;28;20492;-74
2022/07/01 03:01:35;;;;;;;6.63;1.55;;;14.80;99.90;;;;;;5056019;28;20040;-73
2022/07/01 03:04:01;;;;;;;3.58;2.00;;;14.80;99.90;;;;;;5055002;28;20225;-73
2022/07/01 03:06:27;;;;;;;2.90;1.83;;;14.80;99.90;;;;;;5054067;28;20403;-73
2022/07/01 03:08:53;;;;;;;3.67;2.20;;;14.80;99.90;;;;;;5052885;28;20051;-73
2022/07/01 03:11:19;;;;;;;3.15;1.50;;;14.80;99.90;;;;;;5053494;28;20064;-72
2022/07/01 03:13:44;;;;;;;3.17;2.00;;;14.80;99.90;;;;;;5054353;28;20033;-73
2022/07/01 03:16:10;;;;;;;1.83;1.70;;;15.10;99.90;;;;;;5055728;28;20055;-72
2022/07/01 03:18:36;;;;;;;3.67;2.30;;;16.00;99.90;;;;;;5053755;28;20044;-73
2022/07/01 03:21:02;;;;;;;3.50;2.15;;;14.80;99.90;;;;;;5049832;28;20123;-73
2022/07/01 03:23:27;;;;;;;2.15;2.05;;;13.70;99.90;;;;;;5051975;28;20122;-72
2022/07/01 03:25:53;;;;;;;2.97;1.98;;;15.30;99.90;;;;;;5054454;28;20074;-72
2022/07/01 03:28:19;;;;;;;4.22;2.00;;;15.00;99.90;;;;;;5079304;28;20055;-73
2022/07/01 03:30:45;;;;;;;2.83;1.88;;;14.60;99.90;;;;;;5059953;28;20448;-73
2022/07/01 03:33:11;;;;;;;3.63;2.03;;;14.60;99.90;;;;;;5078990;28;20177;-74
2022/07/01 03:35:39;;;;;;;2.53;2.28;;;14.80;99.90;;;;;;5086339;28;20036;-73
2022/07/01 03:38:05;;;;;;;3.78;2.28;;;14.60;99.90;;;;;;5070607;28;20048;-72
2022/07/01 03:40:32;;;;;;;2.65;2.20;;;14.60;99.90;;;;;;5084638;28;20032;-72
2022/07/01 03:42:58;;;;;;;4.22;2.35;;;15.60;99.90;;;;;;5080682;28;20036;-72
2022/07/01 03:45:24;;;;;;;4.25;2.55;;;14.60;99.90;;;;;;5068198;28;20140;-72
2022/07/01 03:47:50;;;;;;;2.17;2.05;;;14.60;99.90;;;;;;5050163;28;20491;-72
2022/07/01 03:50:23;;;;;;;3.10;2.40;;;14.60;99.90;;;;;;5051309;28;20110;-73
2022/07/01 03:54:29;;;;;;;3.15;2.30;;;14.60;99.90;;;;;;5071846;28;20744;-74
2022/07/01 03:55:35;;;;;;;2.88;2.60;;;15.80;99.90;;;;;;5069689;28;21167;-72
2022/07/01 03:58:00;;;;;;;3.78;2.35;;;14.70;99.90;;;;;;5069779;28;20066;-72
2022/07/01 04:00:27;;;;;;;2.78;2.55;;;15.00;99.90;;;;;;5051574;28;20169;-73
2022/07/01 04:02:53;;;;;;;3.08;2.40;;;14.80;99.90;;;;;;5069837;28;20118;-72
2022/07/01 04:05:18;;;;;;;6.50;2.65;;;15.90;99.90;;;;;;5080415;28;20256;-72
2022/07/01 04:07:44;;;;;;;2.28;2.13;;;14.70;99.90;;;;;;5061357;28;20036;-72
2022/07/01 04:10:10;;;;;;;3.80;2.30;;;15.00;99.90;;;;;;5062523;28;20052;-72
2022/07/01 04:12:35;;;;;;;3.75;2.67;;;14.70;99.90;;;;;;5080108;28;20052;-72
2022/07/01 04:15:02;;;;;;;3.42;2.60;;;14.70;99.90;;;;;;5064222;28;20048;-72
2022/07/01 04:17:28;;;;;;;4.95;2.50;;;14.60;99.90;;;;;;5046131;28;20071;-72
2022/07/01 04:19:54;;;;;;;4.30;2.97;;;14.70;99.90;;;;;;5078839;28;20081;-72
2022/07/01 04:22:35;;;;;;;5.45;3.58;;;14.60;99.90;;;;;;5062098;28;20040;-72
2022/07/01 04:25:03;;;;;;;3.28;2.90;;;15.60;99.90;;;;;;5062372;28;20108;-73
2022/07/01 04:27:30;;;;;;;6.97;3.72;;;15.00;99.90;;;;;;5078828;28;21221;-73
2022/07/01 04:29:56;;;;;;;3.72;3.42;;;15.10;99.90;;;;;;5060383;28;20052;-73
2022/07/01 04:32:22;;;;;;;3.30;3.10;;;15.70;99.90;;;;;;5062101;28;20127;-72
2022/07/01 04:34:48;;;;;;;4.22;3.50;;;14.70;99.90;;;;;;5064384;28;20155;-72
2022/07/01 04:37:13;;;;;;;4.80;4.30;;;14.70;99.90;;;;;;5060449;28;20097;-73
2022/07/01 04:39:39;;;;;;;4.53;4.13;;;14.70;99.90;;;;;;5079653;28;20187;-73
2022/07/01 04:42:06;;;;;;;6.30;4.40;;;14.70;99.90;;;;;;5061647;28;20056;-72
2022/07/01 04:44:34;;;;;;;7.53;4.57;;;14.70;99.90;;;;;;5061295;28;20190;-72
2022/07/01 04:47:03;;;;;;;10.02;4.80;;;14.60;99.90;;;;;;5079650;28;20047;-72
2022/07/01 04:49:29;;;;;;;7.63;5.70;;;14.70;99.90;;;;;;5072616;28;20052;-71
2022/07/01 04:51:56;;;;;;;8.73;6.40;;;14.70;99.90;;;;;;5078060;28;20109;-72
2022/07/01 04:54:22;;;;;;;12.23;11.00;;;14.70;99.90;;;;;;5080664;28;20066;-71
2022/07/01 04:56:48;;;;;;;11.30;7.93;;;14.70;99.90;;;;;;5080628;28;20581;-73
2022/07/01 04:59:14;;;;;;;9.98;8.32;;;14.70;99.90;;;;;;5083722;28;20670;-72
2022/07/01 05:01:41;;;;;;;9.02;8.20;;;14.60;99.90;;;;;;5083221;28;20039;-72
2022/07/01 05:04:07;;;;;;;12.23;10.30;;;14.70;99.90;;;;;;5064176;28;20040;-74
2022/07/01 05:06:33;;;;;;;12.85;11.40;;;16.00;99.90;;;;;;5050704;28;20109;-73
2022/07/01 05:08:59;;;;;;;12.98;11.07;;;14.70;99.90;;;;;;5082006;28;20036;-74
2022/07/01 05:11:25;;;;;;;15.02;12.98;;;14.70;99.90;;;;;;5082212;28;20036;-73
2022/07/01 05:13:51;;;;;;;17.08;10.55;;;14.80;99.90;;;;;;5069238;28;20051;-73
2022/07/01 05:16:18;;;;;;;15.95;12.15;;;15.50;99.90;;;;;;5082896;28;20459;-73
2022/07/01 05:24:12;;;;;;;17.52;13.50;;;15.00;99.90;;;;;;5088499;28;19972;-76
2022/07/01 05:26:38;;;;;;;18.67;15.70;;;14.90;99.90;;;;;;5083748;28;20143;-74
2022/07/01 05:29:04;;;;;;;19.35;16.65;;;14.90;99.90;;;;;;5056954;28;20040;-75
2022/07/01 05:31:33;;;;;;;24.27;17.25;;;16.20;99.90;;;;;;5086742;28;20073;-76
2022/07/01 05:33:58;;;;;;;26.33;17.98;;;14.90;99.90;;;;;;4718039;28;9999701;-75
2022/07/01 05:36:24;;;;;;;18.13;16.27;;;15.20;99.90;;;;;;5069385;28;20048;-74
2022/07/01 05:38:50;;;;;;;20.80;16.77;;;15.70;99.90;;;;;;5052616;28;20105;-75
2022/07/01 05:41:16;;;;;;;22.27;16.92;;;15.00;99.90;;;;;;5068667;28;20044;-74
2022/07/01 05:43:41;;;;;;;32.50;21.30;;;15.00;99.90;;;;;;5080047;28;20036;-74
2022/07/01 05:46:07;;;;;;;28.13;19.35;;;15.00;99.90;;;;;;5066631;28;20067;-74
2022/07/01 05:48:33;;;;;;;26.20;18.70;;;15.00;99.90;;;;;;5072345;28;20539;-72
2022/07/01 05:50:59;;;;;;;22.10;18.65;;;15.10;99.90;;;;;;5092240;28;20583;-72
2022/07/01 05:53:27;;;;;;;24.45;20.77;;;15.00;99.90;;;;;;5049795;28;20045;-73
2022/07/01 05:55:53;;;;;;;30.38;21.75;;;15.00;99.90;;;;;;5062468;28;20047;-73
2022/07/01 05:58:18;;;;;;;25.00;20.80;;;14.90;99.90;;;;;;5072135;28;20478;-72
2022/07/01 06:00:47;;;;;;;26.83;21.23;;;15.80;99.90;;;;;;5066925;28;20048;-71
2022/07/01 06:03:14;;;;;;;29.20;22.77;;;15.00;99.90;;;;;;5071296;28;20518;-72
2022/07/01 06:05:40;;;;;;;28.70;23.50;;;15.00;99.90;;;;;;5049969;28;20055;-71
2022/07/01 06:08:07;;;;;;;27.25;21.92;;;15.00;99.90;;;;;;5069930;28;20044;-72
2022/07/01 06:10:33;;;;;;;30.00;23.00;;;15.00;99.90;;;;;;5078639;28;20040;-71
2022/07/01 06:12:59;;;;;;;25.90;22.33;;;15.10;99.90;;;;;;5071076;28;20039;-72
2022/07/01 06:15:25;;;;;;;26.23;22.02;;;15.10;99.90;;;;;;5070588;28;20380;-72
2022/07/01 06:17:51;;;;;;;24.83;21.35;;;15.10;99.90;;;;;;5088772;28;20044;-72
2022/07/01 06:20:17;;;;;;;27.98;21.88;;;15.20;99.90;;;;;;5088188;28;20044;-71
2022/07/01 06:22:43;;;;;;;28.52;22.65;;;15.20;99.90;;;;;;5087290;28;20167;-70
2022/07/01 06:25:09;;;;;;;25.58;22.70;;;15.30;99.90;;;;;;5089629;28;20123;-70
2022/07/01 06:27:42;;;;;;;26.08;23.15;;;15.30;99.90;;;;;;5070637;28;20044;-71
2022/07/01 06:30:09;;;;;;;25.83;22.88;;;15.30;99.90;;;;;;5088620;28;20695;-71
2022/07/01 06:32:36;;;;;;;25.77;22.35;;;15.40;99.90;;;;;;5086499;28;20032;-71
2022/07/01 06:35:02;;;;;;;27.45;24.48;;;15.40;99.90;;;;;;5051668;28;20406;-74
2022/07/01 06:37:30;;;;;;;30.27;23.75;;;15.50;99.90;;;;;;5066613;28;20040;-72
2022/07/01 06:39:59;;;;;;;27.65;21.20;;;15.50;99.90;;;;;;5066916;28;20048;-72
2022/07/01 06:42:25;;;;;;;27.50;22.15;;;15.50;99.90;;;;;;5052851;28;20040;-72
2022/07/01 06:44:51;;;;;;;28.52;22.42;;;16.10;99.90;;;;;;5052926;28;20608;-72
2022/07/01 06:47:16;;;;;;;26.67;22.40;;;15.60;99.90;;;;;;5050901;28;20090;-72
2022/07/01 06:49:42;;;;;;;23.88;21.50;;;15.50;99.90;;;;;;5069626;28;20471;-71
2022/07/01 06:52:08;;;;;;;26.52;21.98;;;15.70;99.90;;;;;;5070227;28;20042;-72
2022/07/01 06:54:35;;;;;;;32.28;23.08;;;15.50;99.90;;;;;;5088467;28;20040;-71
2022/07/01 06:57:04;;;;;;;24.90;22.10;;;15.60;99.90;;;;;;5070194;28;20055;-72
2022/07/01 06:59:30;;;;;;;25.30;22.55;;;15.60;99.90;;;;;;5065133;28;20043;-71
2022/07/01 07:01:55;;;;;;;25.33;22.83;;;15.60;99.90;;;;;;5069138;28;20090;-71
2022/07/01 07:04:21;;;;;;;25.42;22.63;;;15.60;99.90;;;;;;5089565;28;20048;-71
2022/07/01 07:06:47;;;;;;;28.65;21.83;;;15.60;99.90;;;;;;5090970;28;20514;-72
2022/07/01 07:09:12;;;;;;;25.88;22.30;;;16.60;99.90;;;;;;5086438;28;20109;-72
2022/07/01 07:11:38;;;;;;;24.50;20.83;;;15.50;99.90;;;;;;5068988;28;20051;-72
2022/07/01 07:14:04;;;;;;;24.88;21.92;;;15.60;99.90;;;;;;5091783;28;20055;-72
2022/07/01 07:16:29;;;;;;;25.30;22.50;;;15.50;99.90;;;;;;5092903;28;20430;-73
2022/07/01 07:18:55;;;;;;;24.83;22.20;;;15.50;99.90;;;;;;5091247;28;20613;-72
2022/07/01 07:21:20;;;;;;;31.42;23.50;;;15.60;99.90;;;;;;5069613;28;20036;-72
2022/07/01 07:23:46;;;;;;;29.48;23.00;;;16.20;99.90;;;;;;5093157;28;20040;-72
2022/07/01 07:26:12;;;;;;;26.15;21.27;;;15.90;99.90;;;;;;5091820;28;20052;-73
2022/07/01 07:28:38;;;;;;;24.55;21.95;;;15.90;99.90;;;;;;5088082;28;20040;-73
2022/07/01 07:31:04;;;;;;;27.50;21.55;;;15.60;99.90;;;;;;5083010;28;20059;-72
2022/07/01 07:33:29;;;;;;;25.42;22.05;;;15.60;99.90;;;;;;5069764;28;20475;-72
2022/07/01 07:35:55;;;;;;;27.15;21.60;;;15.60;99.90;;;;;;5086903;28;20494;-73
2022/07/01 07:38:21;;;;;;;29.25;20.50;;;15.60;99.90;;;;;;5082944;28;20040;-72
2022/07/01 07:40:47;;;;;;;22.63;20.15;;;15.70;99.90;;;;;;5086280;28;20039;-72
2022/07/01 07:43:12;;;;;;;24.23;20.83;;;15.70;99.90;;;;;;5052636;28;20067;-72
2022/07/01 07:45:38;;;;;;;23.05;20.50;;;15.70;99.90;;;;;;5065911;28;20452;-72
2022/07/01 07:48:05;;;;;;;23.35;20.90;;;15.70;99.90;;;;;;5087880;28;20032;-72
2022/07/01 07:50:31;;;;;;;26.58;21.58;;;15.70;99.90;;;;;;5065115;28;20517;-72
2022/07/01 07:52:57;;;;;;;24.38;19.98;;;15.80;99.90;;;;;;5051651;28;20088;-73
2022/07/01 07:55:23;;;;;;;21.88;19.63;;;15.80;99.90;;;;;;5052709;28;20506;-72
2022/07/01 07:57:49;;;;;;;24.98;19.60;;;15.80;99.90;;;;;;5051955;28;20044;-72
2022/07/01 08:00:15;;;;;;;24.77;20.48;;;16.20;99.90;;;;;;5082346;28;20036;-72
2022/07/01 08:02:41;;;;;;;20.80;17.98;;;15.90;99.90;;;;;;5068050;28;20115;-72
2022/07/01 08:05:09;;;;;;;20.60;18.52;;;16.00;99.90;;;;;;5086494;28;20048;-72
2022/07/01 08:07:40;;;;;;;19.58;17.75;;;15.90;99.90;;;;;;5087901;28;20055;-72
2022/07/01 08:10:07;;;;;;;20.75;18.55;;;16.20;99.90;;;;;;5085767;28;20416;-71
2022/07/01 08:12:33;;;;;;;21.58;17.48;;;16.10;99.90;;;;;;5068687;28;20055;-71
2022/07/01 08:14:59;;;;;;;21.30;16.95;;;16.20;99.90;;;;;;5084329;28;20036;-71
2022/07/01 08:17:26;;;;;;;18.40;15.68;;;16.20;99.90;;;;;;5086739;28;20032;-71
2022/07/01 08:19:51;;;;;;;22.95;16.70;;;16.30;99.90;;;;;;5065124;28;20036;-71
2022/07/01 08:22:17;;;;;;;19.55;15.57;;;16.30;99.90;;;;;;5069581;28;20425;-71
2022/07/01 08:24:43;;;;;;;15.15;13.63;;;16.30;99.90;;;;;;5084839;28;20044;-71
2022/07/01 08:27:08;;;;;;;16.30;13.30;;;16.30;99.90;;;;;;5068355;28;20252;-71
2022/07/01 08:29:34;;;;;;;13.43;11.48;;;16.40;99.90;;;;;;5086605;28;20119;-71
2022/07/01 08:31:59;;;;;;;16.67;12.57;;;16.40;99.90;;;;;;5069411;28;20397;-71
2022/07/01 08:34:25;;;;;;;14.95;12.50;;;16.40;99.90;;;;;;5069969;28;20517;-71
2022/07/01 08:36:51;;;;;;;17.55;12.95;;;16.40;99.90;;;;;;5073173;28;20070;-72
2022/07/01 08:39:17;;;;;;;18.63;13.18;;;16.60;99.90;;;;;;5052115;28;20543;-71
2022/07/01 08:41:43;;;;;;;13.07;11.75;;;17.40;99.90;;;;;;5089865;28;20050;-71
2022/07/01 08:44:09;;;;;;;13.18;10.63;;;16.70;99.90;;;;;;5067316;28;20376;-71
2022/07/01 08:46:36;;;;;;;15.90;10.68;;;16.70;99.90;;;;;;5090017;28;20047;-71
2022/07/01 08:49:03;;;;;;;11.18;8.20;;;16.80;99.90;;;;;;5069340;28;20539;-71
2022/07/01 08:51:28;;;;;;;10.65;9.45;;;16.70;99.90;;;;;;5071393;28;20110;-72
2022/07/01 08:53:54;;;;;;;11.90;9.48;;;16.90;99.90;;;;;;5070572;28;20036;-71
2022/07/01 08:59:07;;;;;;;12.20;8.93;;;16.90;99.90;;;;;;5075337;28;20086;-75
2022/07/01 09:01:33;;;;;;;14.63;8.82;;;16.80;99.90;;;;;;5089957;28;20119;-75
2022/07/01 09:04:17;;;;;;;10.20;8.05;;;16.90;99.90;;;;;;5071533;28;20040;-76
2022/07/01 09:06:44;;;;;;;8.80;6.90;;;16.90;99.90;;;;;;5086618;28;20067;-75
2022/07/01 09:09:12;;;;;;;11.00;8.68;;;16.90;99.90;;;;;;5089827;28;20047;-75
2022/07/01 09:11:44;;;;;;;12.55;9.73;;;17.00;99.90;;;;;;5087249;28;20772;-74
2022/07/01 09:14:15;;;;;;;10.20;8.70;;;17.10;99.90;;;;;;5090646;28;20040;-74
2022/07/01 09:16:42;;;;;;;13.25;7.40;;;17.20;99.90;;;;;;5088630;28;20044;-73
2022/07/01 09:19:08;;;;;;;13.80;6.05;;;17.90;99.90;;;;;;5072849;28;20040;-73
2022/07/01 09:21:34;;;;;;;7.00;4.95;;;17.30;99.90;;;;;;5071663;28;20043;-72
2022/07/01 09:24:04;;;;;;;11.75;6.60;;;18.20;99.90;;;;;;5064977;28;20482;-72
2022/07/01 09:26:30;;;;;;;10.35;3.90;;;17.40;99.90;;;;;;5059900;28;20515;-75
2022/07/01 09:28:57;;;;;;;13.27;4.00;;;17.50;99.90;;;;;;5031348;28;20056;-73
2022/07/01 09:31:33;;;;;;;7.00;4.10;;;17.60;99.90;;;;;;5048547;28;20045;-75
2022/07/01 09:34:04;;;;;;;36.30;4.85;;;17.60;99.90;;;;;;5049076;28;20072;-74
2022/07/01 09:36:30;;;;;;;10.88;4.47;;;17.70;99.90;;;;;;5050146;28;20507;-74
2022/07/01 09:38:55;;;;;;;12.10;4.78;;;17.80;99.90;;;;;;5048613;28;20098;-74
2022/07/01 09:41:23;;;;;;;7.53;4.55;;;18.10;99.90;;;;;;5048746;28;20037;-73
2022/07/01 09:43:49;;;;;;;5.57;4.05;;;17.90;99.90;;;;;;5047135;28;20075;-74
2022/07/01 09:46:15;;;;;;;179.77;19.02;;;17.90;99.90;;;;;;5050670;28;20056;-76
2022/07/01 09:48:40;;;;;;;27.42;5.22;;;17.90;99.90;;;;;;5031892;28;20036;-74
2022/07/01 09:51:07;;;;;;;30.55;5.90;;;17.40;99.90;;;;;;5046772;28;20045;-77
2022/07/01 09:53:34;;;;;;;10.85;4.57;;;18.30;99.90;;;;;;5047922;28;20041;-77
2022/07/01 09:56:00;;;;;;;9.13;3.47;;;18.10;99.90;;;;;;5048960;28;20080;-76
2022/07/01 09:58:26;;;;;;;15.20;3.42;;;18.00;99.90;;;;;;5049341;28;20041;-75
2022/07/01 10:00:55;;;;;;;5.82;3.35;;;18.10;99.90;;;;;;5048596;28;20041;-73
2022/07/01 10:03:22;;;;;;;6.80;3.33;;;18.10;99.90;;;;;;5040391;28;20388;-76
2022/07/01 10:05:53;;;;;;;5.38;2.97;;;19.00;99.90;;;;;;5043978;28;20489;-77
2022/07/01 10:08:53;;;;;;;6.32;3.05;;;18.10;99.90;;;;;;5048823;28;20474;-76
2022/07/01 10:11:43;;;;;;;5.18;2.63;;;18.10;99.90;;;;;;5047349;28;20071;-76
2022/07/01 10:14:12;;;;;;;9.23;3.38;;;18.10;99.90;;;;;;5046869;28;20037;-77
2022/07/01 10:16:38;;;;;;;6.43;2.90;;;18.10;99.90;;;;;;5042519;28;20044;-76
2022/07/01 10:19:28;;;;;;;8.80;4.10;;;18.20;99.90;;;;;;5046440;28;20067;-77
2022/07/01 10:21:56;;;;;;;10.27;4.32;;;18.20;99.90;;;;;;5041394;28;20071;-77
2022/07/01 10:24:23;;;;;;;5.30;3.75;;;18.10;99.90;;;;;;5044885;28;20041;-77
2022/07/01 10:26:49;;;;;;;14.35;4.80;;;18.20;99.90;;;;;;5032893;28;20056;-75
2022/07/01 10:29:31;;;;;;;9.00;4.00;;;18.10;99.90;;;;;;5052954;28;20488;-75
2022/07/01 10:32:04;;;;;;;8.20;3.60;;;18.10;99.90;;;;;;5037613;28;20454;-77
2022/07/01 10:34:38;;;;;;;5.53;3.95;;;18.00;99.90;;;;;;5043976;28;20060;-74
2022/07/01 10:37:09;;;;;;;6.88;3.40;;;18.10;99.90;;;;;;5042517;28;20152;-73
2022/07/01 10:39:53;;;;;;;8.15;3.92;;;18.10;99.90;;;;;;5048154;28;20127;-73
2022/07/01 10:42:19;;;;;;;7.65;2.88;;;18.10;99.90;;;;;;5048692;28;20099;-73
2022/07/01 10:45:11;;;;;;;6.35;2.72;;;18.20;99.90;;;;;;5033240;28;20041;-74
2022/07/01 10:47:39;;;;;;;5.15;2.78;;;18.20;99.90;;;;;;5045881;28;20558;-74
2022/07/01 10:50:06;;;;;;;7.18;2.10;;;18.30;99.90;;;;;;5031111;28;20048;-74
2022/07/01 10:52:33;;;;;;;3.45;0.80;;;18.10;99.90;;;;;;5047593;28;20029;-78
2022/07/01 10:55:00;;;;;;;2.90;0.70;;;17.80;99.90;;;;;;5047305;28;20045;-76
2022/07/01 10:57:33;;;;;;;1.85;0.65;;;17.70;99.90;;;;;;5050708;28;20308;-75
2022/07/01 10:59:59;;;;;;;2.90;0.80;;;17.40;99.90;;;;;;5047248;28;20126;-75
2022/07/01 11:02:28;;;;;;;1.40;0.35;;;17.20;99.90;;;;;;5048031;28;20413;-77
2022/07/01 11:04:59;;;;;;;2.78;0.50;;;17.10;99.90;;;;;;5049078;28;20056;-76
2022/07/01 11:07:28;;;;;;;2.78;0.43;;;17.00;99.90;;;;;;5033221;28;20045;-76
2022/07/01 11:09:54;;;;;;;2.10;0.40;;;16.90;99.90;;;;;;5029746;28;20083;-76
2022/07/01 11:12:24;;;;;;;3.25;0.52;;;16.60;99.90;;;;;;5051645;28;20041;-77
2022/07/01 11:14:50;;;;;;;2.03;0.45;;;16.60;99.90;;;;;;5046744;28;20518;-74
2022/07/01 11:17:19;;;;;;;2.72;0.45;;;16.60;99.90;;;;;;5047417;28;20084;-72
2022/07/01 11:19:49;;;;;;;2.33;0.50;;;16.60;99.90;;;;;;5043095;28;20149;-72
2022/07/01 11:22:22;;;;;;;7.03;1.02;;;16.60;99.90;;;;;;5043672;28;20045;-72
2022/07/01 11:24:53;;;;;;;3.50;0.80;;;16.70;99.90;;;;;;5049961;28;20539;-71
2022/07/01 11:27:19;;;;;;;4.63;0.50;;;16.90;99.90;;;;;;5078148;28;20052;-73
2022/07/01 11:29:45;;;;;;;4.43;0.80;;;16.80;99.90;;;;;;5065210;28;20086;-71
2022/07/01 11:32:10;;;;;;;4.05;0.65;;;17.00;99.90;;;;;;5077480;28;20070;-71
2022/07/01 11:34:37;;;;;;;2.30;0.80;;;17.10;99.90;;;;;;5067240;28;20049;-71
2022/07/01 11:40:09;;;;;;;3.10;0.85;;;17.30;99.90;;;;;;5066845;28;20486;-73
2022/07/01 11:42:35;;;;;;;2.85;0.70;;;17.30;99.90;;;;;;5078071;28;20478;-74
2022/07/01 11:45:01;;;;;;;3.80;0.60;;;17.30;99.90;;;;;;5049404;28;20048;-74
2022/07/01 11:47:28;;;;;;;2.90;1.00;;;17.40;99.90;;;;;;5087658;28;20035;-74
2022/07/01 11:49:54;;;;;;;4.75;1.17;;;17.50;99.90;;;;;;5068075;28;20075;-75
2022/07/01 11:52:21;;;;;;;8.30;1.05;;;17.60;99.90;;;;;;5053162;28;20047;-74
2022/07/01 11:54:52;;;;;;;6.28;1.20;;;17.90;99.90;;;;;;5069726;28;20482;-74
2022/07/01 11:57:24;;;;;;;3.60;1.00;;;18.10;99.90;;;;;;5048284;28;20090;-76
2022/07/01 11:59:52;;;;;;;3.33;0.70;;;18.30;99.90;;;;;;5069874;28;20055;-75
2022/07/01 12:02:21;;;;;;;9.95;1.17;;;18.50;99.90;;;;;;5070200;28;20044;-75
2022/07/01 12:04:47;;;;;;;2.33;0.50;;;19.60;99.90;;;;;;5069058;28;20052;-75
2022/07/01 12:07:15;;;;;;;7.10;0.85;;;19.00;99.90;;;;;;5068347;28;20044;-74
2022/07/01 12:09:41;;;;;;;21.05;1.23;;;19.20;99.90;;;;;;5073977;28;20032;-73
2022/07/01 12:12:14;;;;;;;2.55;0.60;;;20.10;99.90;;;;;;5051894;28;20092;-77
2022/07/01 12:14:41;;;;;;;2.60;0.47;;;19.40;99.90;;;;;;5049836;28;20058;-76
2022/07/01 12:17:08;;;;;;;7.88;0.55;;;19.50;99.90;;;;;;5079233;28;20461;-74
2022/07/01 12:19:42;;;;;;;5.00;0.50;;;19.50;99.90;;;;;;5092342;28;20032;-75
2022/07/01 12:22:15;;;;;;;4.07;0.75;;;19.50;99.90;;;;;;5074106;28;20566;-72
2022/07/01 12:24:42;;;;;;;1.88;0.40;;;19.80;99.90;;;;;;5048551;28;20477;-74
2022/07/01 12:27:09;;;;;;;2.30;0.43;;;19.50;99.90;;;;;;5092174;28;20044;-74
2022/07/01 12:29:46;;;;;;;3.35;0.30;;;19.50;99.90;;;;;;5073308;28;20044;-74
2022/07/01 12:32:15;;;;;;;5.28;0.50;;;19.60;99.90;;;;;;5091399;28;20580;-75
2022/07/01 12:34:49;;;;;;;3.55;0.57;;;19.80;99.90;;;;;;5066333;28;20579;-74
2022/07/01 12:37:17;;;;;;;2.90;0.60;;;20.00;99.90;;;;;;5072053;28;20044;-74
2022/07/01 12:39:46;;;;;;;4.72;0.60;;;20.20;99.90;;;;;;5089556;28;20093;-74
2022/07/01 12:42:38;;;;;;;3.05;0.55;;;20.30;99.90;;;;;;5089201;28;20502;-75
2022/07/01 12:45:06;;;;;;;2.90;0.88;;;20.30;99.90;;;;;;5070804;28;20038;-76
2022/07/01 12:47:37;;;;;;;2.20;0.25;;;20.30;99.90;;;;;;5069189;28;20097;-75
2022/07/01 12:50:21;;;;;;;2.80;0.60;;;21.00;99.90;;;;;;5051748;28;20450;-75
2022/07/01 12:53:05;;;;;;;3.15;0.68;;;20.30;99.90;;;;;;5098840;28;20052;-76
2022/07/01 12:55:39;;;;;;;2.55;0.25;;;20.20;99.90;;;;;;5085767;28;20044;-77